Time;durP1;ratioP1;P1;durP2;ratioP2;P2;SDS_P1;SDS_P2;PMS_P1;PMS_P2;Temp;Humidity;BMP_temperature;BMP_pressure;BME280_temperature;BME280_humidity;BME280_pressure;Samples;Min_cycle;Max_cycle;Signal;HPM_P1;HPM_P2
2024/02/08 00:01:51;;;;;;;40.67;21.10;;;6.20;75.40;;;;;;5013004;28;20393;-75
2024/02/08 00:04:17;;;;;;;44.05;22.42;;;6.20;74.50;;;;;;5012864;28;20392;-76
2024/02/08 00:06:43;;;;;;;36.72;21.20;;;6.20;73.90;;;;;;5012881;28;20491;-75
2024/02/08 00:09:08;;;;;;;38.93;21.77;;;6.30;72.30;;;;;;5013107;28;20457;-75
2024/02/08 00:11:34;;;;;;;41.17;21.67;;;6.30;73.20;;;;;;5028275;28;20389;-75
2024/02/08 00:13:59;;;;;;;42.17;22.67;;;6.20;73.40;;;;;;5013929;28;20424;-74
2024/02/08 00:16:26;;;;;;;37.23;22.07;;;6.30;71.90;;;;;;5013410;28;20408;-75
2024/02/08 00:18:53;;;;;;;38.72;21.55;;;6.30;71.20;;;;;;5013603;28;20843;-74
2024/02/08 00:21:18;;;;;;;41.75;23.05;;;6.20;73.40;;;;;;5013160;28;20447;-75
2024/02/08 00:23:44;;;;;;;42.13;22.40;;;6.00;76.00;;;;;;5012933;28;20464;-75
2024/02/08 00:26:09;;;;;;;43.22;23.30;;;5.80;80.70;;;;;;5012723;28;20774;-76
2024/02/08 00:28:35;;;;;;;45.30;24.05;;;5.80;82.50;;;;;;5012837;28;20863;-75
2024/02/08 00:31:03;;;;;;;41.58;23.60;;;5.80;83.20;;;;;;5012481;28;20893;-75
2024/02/08 00:33:29;;;;;;;40.95;22.50;;;6.10;77.30;;;;;;5012536;28;20384;-74
2024/02/08 00:35:56;;;;;;;39.80;21.80;;;6.20;75.50;;;;;;5012113;28;20396;-75
2024/02/08 00:38:21;;;;;;;43.78;22.20;;;6.00;74.70;;;;;;5012753;28;20879;-75
2024/02/08 00:40:47;;;;;;;40.83;22.73;;;5.90;79.50;;;;;;5018209;28;20396;-74
2024/02/08 00:43:13;;;;;;;47.13;23.90;;;5.70;82.20;;;;;;5011186;28;20385;-74
2024/02/08 00:45:39;;;;;;;46.57;23.57;;;5.70;84.90;;;;;;5012132;28;20412;-75
2024/02/08 00:48:05;;;;;;;44.78;23.90;;;5.50;87.00;;;;;;5012481;28;20792;-75
2024/02/08 00:50:30;;;;;;;46.53;24.73;;;5.50;88.50;;;;;;5012007;28;20404;-74
2024/02/08 00:52:58;;;;;;;44.97;24.63;;;5.50;89.20;;;;;;5011929;28;20385;-76
2024/02/08 00:55:24;;;;;;;45.28;24.17;;;5.50;87.60;;;;;;5012449;28;20394;-74
2024/02/08 00:57:49;;;;;;;48.23;25.27;;;5.50;88.30;;;;;;5011910;28;20395;-75
2024/02/08 01:00:17;;;;;;;47.77;25.83;;;5.40;89.00;;;;;;5012895;28;20393;-74
2024/02/08 01:02:43;;;;;;;59.60;26.83;;;5.40;90.20;;;;;;5012061;28;20396;-75
2024/02/08 01:05:09;;;;;;;48.47;25.13;;;5.30;90.80;;;;;;5012054;28;20405;-76
2024/02/08 01:07:35;;;;;;;48.72;23.92;;;5.30;92.60;;;;;;5011840;28;20395;-73
2024/02/08 01:10:02;;;;;;;44.17;23.80;;;5.30;92.70;;;;;;5012593;28;20536;-76
2024/02/08 01:12:27;;;;;;;40.30;22.75;;;5.50;90.80;;;;;;5011949;28;20393;-74
2024/02/08 01:14:53;;;;;;;40.50;22.63;;;5.70;85.20;;;;;;5011684;28;20722;-74
2024/02/08 01:17:19;;;;;;;42.40;24.45;;;5.80;83.10;;;;;;5011949;28;20393;-73
2024/02/08 01:19:46;;;;;;;40.03;21.37;;;5.70;83.90;;;;;;5011836;28;20445;-74
2024/02/08 01:22:19;;;;;;;42.80;21.88;;;6.00;80.60;;;;;;5012592;28;20385;-76
2024/02/08 01:24:48;;;;;;;42.17;22.52;;;6.00;78.70;;;;;;5014337;28;20407;-74
2024/02/08 01:27:14;;;;;;;41.40;22.95;;;5.80;78.60;;;;;;5014428;28;20434;-74
2024/02/08 01:29:39;;;;;;;42.15;22.05;;;5.80;80.90;;;;;;5013371;28;20389;-75
2024/02/08 01:32:05;;;;;;;42.33;22.60;;;5.90;79.60;;;;;;5014348;28;20388;-75
2024/02/08 01:34:31;;;;;;;46.08;23.20;;;5.90;77.50;;;;;;5011345;28;20439;-75
2024/02/08 01:36:59;;;;;;;43.28;22.80;;;5.80;78.70;;;;;;5012078;28;20392;-76
2024/02/08 01:39:25;;;;;;;47.92;22.90;;;5.70;82.50;;;;;;5012460;28;20393;-75
2024/02/08 01:41:52;;;;;;;44.27;23.27;;;5.90;79.30;;;;;;5011780;28;20482;-73
2024/02/08 01:44:21;;;;;;;44.30;22.27;;;6.00;78.60;;;;;;5011878;28;20423;-74
2024/02/08 01:46:48;;;;;;;42.45;22.30;;;5.90;78.10;;;;;;5010589;28;20407;-74
2024/02/08 01:49:29;;;;;;;42.08;21.45;;;6.10;77.10;;;;;;5016497;28;20405;-76
2024/02/08 01:51:59;;;;;;;41.95;22.58;;;6.20;74.30;;;;;;5016610;28;20857;-75
2024/02/08 01:54:27;;;;;;;41.05;22.30;;;6.20;74.10;;;;;;5016099;28;20415;-75
2024/02/08 01:56:53;;;;;;;40.47;22.00;;;6.10;76.10;;;;;;5015722;28;20392;-76
2024/02/08 01:59:19;;;;;;;43.93;23.73;;;6.00;76.40;;;;;;5015157;28;20452;-75
2024/02/08 02:01:50;;;;;;;44.07;24.87;;;5.80;79.20;;;;;;5015673;28;20385;-74
2024/02/08 02:04:19;;;;;;;45.00;25.50;;;6.00;78.20;;;;;;5015299;28;20384;-75
2024/02/08 02:06:45;;;;;;;45.55;24.88;;;5.80;79.70;;;;;;5015385;28;20400;-75
2024/02/08 02:09:23;;;;;;;46.08;24.85;;;5.80;82.10;;;;;;5015282;28;20412;-74
2024/02/08 02:11:59;;;;;;;42.65;22.92;;;5.90;82.50;;;;;;5015239;28;20457;-74
2024/02/08 02:14:29;;;;;;;40.25;21.75;;;6.10;76.50;;;;;;5014878;28;20384;-74
2024/02/08 02:17:07;;;;;;;39.88;22.00;;;6.10;73.20;;;;;;5015882;28;20398;-76
2024/02/08 02:19:32;;;;;;;46.60;23.70;;;6.10;71.70;;;;;;5015511;28;20446;-75
2024/02/08 02:21:58;;;;;;;41.90;23.17;;;5.90;75.20;;;;;;5015572;28;20381;-75
2024/02/08 02:24:24;;;;;;;46.27;24.63;;;5.70;78.30;;;;;;5018458;28;20396;-75
2024/02/08 02:26:50;;;;;;;39.88;20.70;;;5.60;82.90;;;;;;5015287;28;20404;-75
2024/02/08 02:29:21;;;;;;;43.17;23.00;;;5.80;79.60;;;;;;5015196;28;20381;-74
2024/02/08 02:31:48;;;;;;;41.28;22.50;;;5.80;77.90;;;;;;5015965;28;20754;-74
2024/02/08 02:34:14;;;;;;;40.00;22.08;;;6.10;74.90;;;;;;5014725;28;20395;-75
2024/02/08 02:36:44;;;;;;;44.57;22.27;;;6.00;74.40;;;;;;5014927;28;20900;-75
2024/02/08 02:39:13;;;;;;;41.53;22.60;;;6.10;75.10;;;;;;5014969;28;20411;-75
2024/02/08 02:41:42;;;;;;;45.33;24.05;;;6.10;72.90;;;;;;5016002;28;20459;-76
2024/02/08 02:44:08;;;;;;;44.28;23.75;;;5.90;75.10;;;;;;5014373;28;20392;-75
2024/02/08 02:46:36;;;;;;;46.10;24.88;;;5.80;78.20;;;;;;5013233;28;20431;-75
2024/02/08 02:49:03;;;;;;;45.40;24.20;;;5.70;80.80;;;;;;5014767;28;20384;-75
2024/02/08 02:51:30;;;;;;;46.13;25.60;;;5.60;82.50;;;;;;5014882;28;20383;-74
2024/02/08 02:53:57;;;;;;;47.08;24.77;;;5.60;83.30;;;;;;5014395;28;20377;-75
2024/02/08 02:56:23;;;;;;;42.78;24.23;;;5.60;83.90;;;;;;5014796;28;20389;-75
2024/02/08 02:58:49;;;;;;;46.57;23.77;;;5.90;78.00;;;;;;5014177;28;20803;-74
2024/02/08 03:01:14;;;;;;;43.30;23.83;;;5.80;79.30;;;;;;5014524;28;20500;-76
2024/02/08 03:03:40;;;;;;;47.17;24.63;;;5.70;81.60;;;;;;5014724;28;20927;-75
2024/02/08 03:06:16;;;;;;;51.90;25.98;;;5.60;83.20;;;;;;5014173;28;20791;-76
2024/02/08 03:08:43;;;;;;;48.88;24.80;;;5.70;82.90;;;;;;5014771;28;20409;-75
2024/02/08 03:11:15;;;;;;;45.53;23.27;;;5.60;83.20;;;;;;5014195;28;20389;-74
2024/02/08 03:13:42;;;;;;;53.95;25.00;;;5.60;84.40;;;;;;5013703;28;20427;-75
2024/02/08 03:16:14;;;;;;;52.30;26.55;;;5.60;84.90;;;;;;5013839;28;20910;-75
2024/02/08 03:18:43;;;;;;;51.55;26.30;;;5.50;85.20;;;;;;5013953;28;20454;-75
2024/02/08 03:21:14;;;;;;;57.72;26.75;;;5.50;86.20;;;;;;5014070;28;20385;-76
2024/02/08 03:23:43;;;;;;;45.88;24.75;;;5.50;86.50;;;;;;5013877;28;20388;-74
2024/02/08 03:26:11;;;;;;;50.35;24.50;;;5.50;86.40;;;;;;5013843;28;20551;-75
2024/02/08 03:28:37;;;;;;;45.08;23.10;;;5.70;82.30;;;;;;5013960;28;20730;-75
2024/02/08 03:31:02;;;;;;;49.17;24.40;;;5.70;81.00;;;;;;5014112;28;20395;-75
2024/02/08 03:33:28;;;;;;;49.67;23.95;;;5.70;81.00;;;;;;5013509;28;20452;-75
2024/02/08 03:35:54;;;;;;;53.70;24.83;;;5.60;80.90;;;;;;5014194;28;20499;-75
2024/02/08 03:38:20;;;;;;;46.80;22.27;;;5.50;82.70;;;;;;5014369;28;20447;-76
2024/02/08 03:40:46;;;;;;;41.63;20.80;;;5.50;83.80;;;;;;5016717;28;20447;-75
2024/02/08 03:43:15;;;;;;;37.15;19.60;;;5.40;84.20;;;;;;5017068;28;20856;-75
2024/02/08 03:45:44;;;;;;;37.63;18.15;;;5.40;84.70;;;;;;5020253;28;20818;-75
2024/02/08 03:48:10;;;;;;;36.70;18.08;;;5.40;85.30;;;;;;5018552;28;20388;-75
2024/02/08 03:50:37;;;;;;;30.33;15.95;;;5.40;84.90;;;;;;5018127;28;20927;-75
2024/02/08 03:53:03;;;;;;;32.80;16.60;;;5.40;83.20;;;;;;5017396;28;20853;-77
2024/02/08 03:55:29;;;;;;;33.30;16.73;;;5.70;80.80;;;;;;5013957;28;20380;-75
2024/02/08 03:58:00;;;;;;;35.90;17.25;;;5.70;78.70;;;;;;5013513;28;20385;-75
2024/02/08 04:00:28;;;;;;;35.65;18.20;;;5.70;77.50;;;;;;5012932;28;20420;-75
2024/02/08 04:02:57;;;;;;;33.97;18.40;;;5.50;78.90;;;;;;5012819;28;20394;-75
2024/02/08 04:05:36;;;;;;;35.85;18.58;;;5.60;78.50;;;;;;5016941;28;20441;-74
2024/02/08 04:54:40;;;;;;;36.13;18.85;;;5.30;83.40;;;;;;5029834;28;20526;-73
2024/02/08 04:57:07;;;;;;;36.15;18.67;;;5.20;84.40;;;;;;5022561;28;20702;-73
2024/02/08 04:59:35;;;;;;;37.60;19.25;;;5.20;84.40;;;;;;5020145;28;20393;-73
2024/02/08 05:02:01;;;;;;;39.60;19.00;;;5.20;85.50;;;;;;5011993;28;20397;-73
2024/02/08 05:04:28;;;;;;;32.85;18.70;;;5.20;86.00;;;;;;5013695;28;20455;-74
2024/02/08 05:06:55;;;;;;;42.87;18.50;;;5.20;86.50;;;;;;5013931;28;20504;-71
2024/02/08 05:09:21;;;;;;;32.38;17.20;;;5.30;86.10;;;;;;5016189;28;20426;-73
2024/02/08 05:11:52;;;;;;;33.40;18.13;;;5.30;85.00;;;;;;5011391;28;20393;-72
2024/02/08 05:14:22;;;;;;;35.75;17.35;;;5.30;84.70;;;;;;5021079;28;20434;-73
2024/02/08 05:16:56;;;;;;;41.97;19.30;;;5.30;85.40;;;;;;5022767;28;20399;-74
2024/02/08 05:19:25;;;;;;;35.95;18.30;;;5.30;85.50;;;;;;5030329;28;20385;-75
2024/02/08 05:21:54;;;;;;;36.92;17.77;;;5.30;86.30;;;;;;5031386;28;20413;-74
2024/02/08 05:24:20;;;;;;;39.28;18.65;;;5.20;86.70;;;;;;5031178;28;20521;-74
2024/02/08 05:26:46;;;;;;;33.70;18.48;;;5.30;87.10;;;;;;5031254;28;20486;-74
2024/02/08 05:29:19;;;;;;;31.90;16.97;;;5.30;87.30;;;;;;5030320;28;20850;-74
2024/02/08 05:31:49;;;;;;;34.97;18.40;;;5.30;87.20;;;;;;5030009;28;20377;-75
2024/02/08 05:34:15;;;;;;;38.35;17.60;;;5.40;86.10;;;;;;5030560;28;20390;-74
2024/02/08 05:36:42;;;;;;;33.95;17.40;;;5.40;84.70;;;;;;5028777;28;20474;-74
2024/02/08 05:39:12;;;;;;;34.17;17.63;;;5.40;85.20;;;;;;5030149;28;20386;-75
2024/02/08 05:41:44;;;;;;;37.63;17.58;;;5.40;85.70;;;;;;5029705;28;20398;-75
2024/02/08 05:44:09;;;;;;;34.85;16.60;;;5.40;86.60;;;;;;5032173;28;20405;-74
2024/02/08 05:46:38;;;;;;;33.37;17.80;;;5.40;86.50;;;;;;5033057;28;20414;-75
2024/02/08 05:49:04;;;;;;;29.75;16.50;;;5.40;86.30;;;;;;5029576;28;20387;-74
2024/02/08 05:51:35;;;;;;;31.58;15.85;;;5.40;86.00;;;;;;5029601;28;20398;-74
2024/02/08 05:54:06;;;;;;;28.83;15.35;;;5.40;85.10;;;;;;5029834;28;20464;-74
2024/02/08 05:56:39;;;;;;;27.95;15.40;;;5.40;83.60;;;;;;5030795;28;20418;-75
2024/02/08 05:59:05;;;;;;;28.88;15.73;;;5.40;84.60;;;;;;5028885;28;20387;-74
2024/02/08 06:01:44;;;;;;;32.13;16.63;;;5.40;85.10;;;;;;5029746;28;20811;-75
2024/02/08 06:04:12;;;;;;;30.92;16.10;;;5.50;84.10;;;;;;5029777;28;20383;-75
2024/02/08 06:06:48;;;;;;;32.67;16.93;;;5.60;83.60;;;;;;5030068;28;20429;-74
2024/02/08 06:09:33;;;;;;;32.85;15.32;;;5.70;79.50;;;;;;5029910;28;20799;-74
2024/02/08 06:12:08;;;;;;;31.38;16.60;;;5.70;78.50;;;;;;5030434;28;20792;-74
2024/02/08 06:14:38;;;;;;;36.78;17.42;;;5.70;80.00;;;;;;5032059;28;20452;-74
2024/02/08 06:17:10;;;;;;;28.07;15.73;;;5.50;80.60;;;;;;4956262;28;2125915;-76
2024/02/08 06:19:50;;;;;;;33.80;17.35;;;5.40;83.50;;;;;;5032606;28;20397;-74
2024/02/08 06:22:22;;;;;;;33.65;17.67;;;5.40;83.90;;;;;;5029801;28;20411;-74
2024/02/08 06:24:48;;;;;;;31.52;17.50;;;5.30;85.50;;;;;;5030711;28;20429;-74
2024/02/08 06:27:14;;;;;;;32.43;16.67;;;5.30;87.20;;;;;;5030542;28;20399;-74
2024/02/08 06:29:46;;;;;;;33.27;17.57;;;5.30;85.40;;;;;;5031672;28;20402;-75
2024/02/08 06:35:08;;;;;;;35.00;18.52;;;5.20;87.60;;;;;;5034587;28;20749;-73
2024/02/08 06:37:44;;;;;;;35.35;17.13;;;5.10;89.40;;;;;;5034219;28;20393;-75
2024/02/08 06:40:21;;;;;;;37.75;18.60;;;5.10;89.50;;;;;;5034177;28;20468;-75
2024/02/08 06:45:48;;;;;;;40.58;21.70;;;5.10;90.40;;;;;;5037761;28;20407;-76
2024/02/08 06:48:35;;;;;;;44.13;22.20;;;5.20;89.90;;;;;;5036592;28;20398;-74
2024/02/08 07:37:17;;;;;;;37.83;18.60;;;5.10;90.90;;;;;;5034697;28;20406;-75
2024/02/08 07:37:46;;;;;;;37.35;19.77;;;5.90;76.90;;;;;;5036511;28;20406;-74
2024/02/08 07:40:34;;;;;;;39.78;20.35;;;5.80;79.80;;;;;;5035058;28;20383;-75
2024/02/08 07:45:42;;;;;;;34.80;18.13;;;5.70;81.80;;;;;;5033234;28;20442;-75
2024/02/08 07:48:12;;;;;;;37.38;19.67;;;5.80;80.70;;;;;;5034064;28;20387;-74
2024/02/08 07:50:44;;;;;;;39.42;19.92;;;5.90;79.00;;;;;;5033772;28;20406;-76
2024/02/08 07:53:19;;;;;;;33.95;17.77;;;5.90;77.80;;;;;;5034191;28;20383;-76
2024/02/08 07:55:58;;;;;;;35.33;21.00;;;5.90;76.90;;;;;;5033542;28;20581;-75
2024/02/08 07:58:27;;;;;;;37.60;20.10;;;6.00;76.10;;;;;;5033370;28;20471;-74
2024/02/08 08:00:56;;;;;;;31.70;17.30;;;6.10;74.70;;;;;;5033371;28;20386;-75
2024/02/08 08:03:23;;;;;;;34.75;18.27;;;6.10;74.40;;;;;;5033217;28;20732;-75
2024/02/08 08:05:56;;;;;;;31.92;17.10;;;6.10;74.80;;;;;;5033202;28;20777;-74
2024/02/08 08:08:25;;;;;;;26.85;15.55;;;6.10;73.50;;;;;;5033400;28;20428;-75
2024/02/08 08:11:02;;;;;;;32.20;16.55;;;6.20;72.90;;;;;;5033532;28;20736;-76
2024/02/08 08:18:57;;;;;;;30.95;15.70;;;6.50;67.60;;;;;;5032978;28;20398;-74
2024/02/08 08:21:58;;;;;;;25.85;14.30;;;6.40;68.60;;;;;;5034317;28;20387;-75
2024/02/08 08:24:25;;;;;;;22.83;13.77;;;6.50;67.90;;;;;;5032765;28;20421;-74
2024/02/08 08:27:07;;;;;;;26.80;14.20;;;6.70;65.30;;;;;;5032616;28;20403;-75
2024/02/08 08:29:45;;;;;;;23.52;13.70;;;6.70;65.00;;;;;;5032767;28;20466;-75
2024/02/08 08:37:44;;;;;;;22.98;13.05;;;6.80;63.20;;;;;;5032884;28;20437;-73
2024/02/08 08:42:57;;;;;;;20.23;12.35;;;6.70;65.00;;;;;;5032346;28;20387;-74
2024/02/08 08:45:23;;;;;;;20.92;12.52;;;6.90;65.00;;;;;;5032131;28;20886;-74
2024/02/08 08:47:51;;;;;;;21.48;12.90;;;6.80;64.70;;;;;;5031866;28;20383;-74
2024/02/08 08:50:20;;;;;;;25.35;12.70;;;6.90;64.50;;;;;;5032070;28;20411;-74
2024/02/08 08:52:47;;;;;;;19.38;11.80;;;6.90;65.60;;;;;;5031267;28;20387;-75
2024/02/08 08:55:20;;;;;;;21.45;11.88;;;6.90;65.40;;;;;;5031627;28;20474;-74
2024/02/08 08:57:54;;;;;;;15.32;9.63;;;6.90;65.90;;;;;;5031789;28;20387;-75
2024/02/08 09:00:32;;;;;;;16.67;9.90;;;7.00;63.30;;;;;;5032967;28;20390;-74
2024/02/08 09:03:04;;;;;;;16.95;10.25;;;6.90;64.00;;;;;;5030777;28;20395;-74
2024/02/08 09:05:30;;;;;;;18.63;10.07;;;7.00;65.20;;;;;;5031929;28;20399;-74
2024/02/08 09:08:09;;;;;;;16.05;10.30;;;7.00;64.80;;;;;;5047473;28;20809;-75
2024/02/08 09:10:35;;;;;;;18.10;9.45;;;6.80;65.80;;;;;;5032012;28;20464;-74
2024/02/08 09:13:06;;;;;;;15.40;9.27;;;6.80;66.70;;;;;;5031751;28;20394;-74
2024/02/08 09:15:47;;;;;;;14.50;9.53;;;7.10;65.90;;;;;;5032350;28;20386;-74
2024/02/08 09:18:15;;;;;;;17.95;9.90;;;7.10;65.60;;;;;;5032182;28;20390;-76
2024/02/08 09:20:41;;;;;;;16.35;9.38;;;7.10;68.10;;;;;;5032285;28;20379;-74
2024/02/08 09:23:13;;;;;;;13.70;8.27;;;7.10;67.30;;;;;;5032822;28;20882;-75
2024/02/08 09:25:45;;;;;;;14.05;8.80;;;7.20;64.30;;;;;;5032804;28;20456;-73
2024/02/08 09:28:26;;;;;;;14.90;9.23;;;7.20;64.90;;;;;;5031906;28;20375;-74
2024/02/08 09:30:57;;;;;;;14.60;9.30;;;7.20;66.30;;;;;;5031374;28;20390;-74
2024/02/08 09:33:35;;;;;;;16.17;8.20;;;7.20;67.60;;;;;;5031090;28;20441;-74
2024/02/08 09:36:02;;;;;;;14.73;8.30;;;7.20;68.10;;;;;;5031260;28;20419;-75
2024/02/08 09:38:29;;;;;;;13.55;8.40;;;7.20;66.40;;;;;;5031203;28;20407;-74
2024/02/08 09:41:01;;;;;;;13.90;8.63;;;7.30;66.60;;;;;;5031599;28;20398;-74
2024/02/08 09:43:29;;;;;;;12.73;8.20;;;7.30;65.90;;;;;;5029647;28;20395;-75
2024/02/08 09:46:05;;;;;;;11.30;7.18;;;7.40;64.30;;;;;;5031844;28;20411;-74
2024/02/08 09:48:42;;;;;;;16.48;8.80;;;7.60;62.60;;;;;;5032262;28;20828;-74
2024/02/08 09:51:13;;;;;;;13.65;7.72;;;7.70;64.20;;;;;;5031196;28;20409;-75
2024/02/08 09:53:51;;;;;;;11.27;7.53;;;7.80;63.30;;;;;;5031185;28;20935;-75
2024/02/08 09:56:25;;;;;;;10.07;6.80;;;7.80;60.30;;;;;;5031494;28;20406;-75
2024/02/08 09:59:02;;;;;;;11.15;6.93;;;7.80;60.30;;;;;;5030965;28;20444;-75
2024/02/08 10:01:42;;;;;;;11.70;7.20;;;7.80;59.20;;;;;;5034362;28;20379;-75
2024/02/08 10:04:16;;;;;;;9.75;6.38;;;7.80;61.10;;;;;;5032072;28;20766;-74
2024/02/08 10:06:56;;;;;;;12.77;7.25;;;8.00;59.30;;;;;;5031054;28;20893;-74
2024/02/08 10:09:46;;;;;;;11.20;7.50;;;8.10;59.60;;;;;;5033887;28;20379;-74
2024/02/08 10:12:20;;;;;;;8.98;6.43;;;8.10;60.50;;;;;;5034157;28;20735;-75
2024/02/08 10:14:54;;;;;;;9.98;6.75;;;7.90;58.90;;;;;;5034718;28;20444;-74
2024/02/08 10:17:40;;;;;;;8.30;6.10;;;7.80;61.10;;;;;;5035792;28;20399;-74
2024/02/08 10:22:58;;;;;;;11.77;6.05;;;7.60;63.20;;;;;;5035513;28;20390;-74
2024/02/08 10:28:09;;;;;;;7.95;5.82;;;7.60;64.90;;;;;;5035526;28;20749;-75
2024/02/08 10:30:37;;;;;;;7.90;5.50;;;7.50;67.10;;;;;;5036605;28;20413;-75
2024/02/08 10:33:04;;;;;;;8.25;5.50;;;7.60;65.50;;;;;;5034949;28;20379;-74
2024/02/08 10:35:39;;;;;;;7.90;5.83;;;7.70;64.90;;;;;;5035428;28;20403;-76
2024/02/08 10:38:18;;;;;;;9.45;6.10;;;7.60;67.10;;;;;;5037663;28;20395;-74
2024/02/08 10:40:47;;;;;;;9.40;5.38;;;7.90;66.40;;;;;;5051613;28;20438;-75
2024/02/08 10:43:24;;;;;;;7.57;5.50;;;7.80;64.90;;;;;;5053055;28;20387;-74
2024/02/08 10:45:54;;;;;;;7.82;5.13;;;7.70;66.80;;;;;;5052957;28;20789;-76
2024/02/08 10:48:21;;;;;;;8.15;5.40;;;7.60;66.60;;;;;;5052522;28;20439;-74
2024/02/08 10:50:49;;;;;;;8.68;6.03;;;7.40;69.60;;;;;;5051618;28;20390;-76
2024/02/08 10:53:18;;;;;;;9.40;5.95;;;7.40;71.80;;;;;;5040780;28;20388;-73
2024/02/08 10:55:52;;;;;;;7.70;5.70;;;7.50;73.00;;;;;;5034836;28;20476;-75
2024/02/08 10:58:29;;;;;;;7.40;5.45;;;7.60;70.40;;;;;;5034506;28;20947;-75
2024/02/08 11:01:32;;;;;;;10.10;6.40;;;7.50;71.50;;;;;;5033985;28;20391;-74
2024/02/08 11:03:53;;;;;;;10.65;5.90;;;7.50;71.00;;;;;;5033784;28;20462;-74
2024/02/08 11:06:32;;;;;;;8.73;6.07;;;7.50;71.30;;;;;;5032962;28;20468;-74
2024/02/08 11:09:30;;;;;;;8.90;6.20;;;7.50;73.00;;;;;;5033578;28;20383;-74
2024/02/08 11:11:59;;;;;;;10.63;6.40;;;7.40;73.00;;;;;;5033226;28;20411;-75
2024/02/08 11:14:28;;;;;;;13.02;6.93;;;7.50;76.50;;;;;;5033809;28;20441;-75
2024/02/08 11:16:54;;;;;;;9.90;7.13;;;7.50;75.20;;;;;;5033823;28;20407;-73
2024/02/08 11:19:22;;;;;;;11.98;6.45;;;7.50;76.00;;;;;;5034679;28;20379;-76
2024/02/08 11:21:49;;;;;;;11.82;6.88;;;7.50;76.10;;;;;;5040119;28;20390;-75
2024/02/08 11:24:27;;;;;;;11.17;6.30;;;7.40;76.50;;;;;;5041600;28;20461;-75
2024/02/08 11:27:01;;;;;;;13.32;7.60;;;7.40;77.40;;;;;;5036432;28;20419;-75
2024/02/08 11:29:28;;;;;;;12.73;7.82;;;7.30;79.50;;;;;;5035668;28;20380;-74
2024/02/08 11:31:59;;;;;;;12.43;7.18;;;7.30;82.70;;;;;;5034608;28;20777;-75
2024/02/08 11:34:44;;;;;;;12.40;7.60;;;7.30;83.00;;;;;;5035063;28;20713;-74
2024/02/08 11:37:17;;;;;;;14.40;6.80;;;7.30;82.80;;;;;;5033879;28;20414;-73
2024/02/08 11:39:47;;;;;;;12.50;7.47;;;7.40;82.20;;;;;;5033680;28;20391;-74
2024/02/08 11:42:22;;;;;;;11.70;7.35;;;7.30;84.90;;;;;;5050114;28;20827;-73
2024/02/08 11:44:57;;;;;;;14.25;7.90;;;7.30;84.10;;;;;;5034544;28;20390;-75
2024/02/08 11:47:23;;;;;;;13.98;8.18;;;7.30;85.30;;;;;;5033415;28;20403;-75
2024/02/08 11:50:03;;;;;;;14.13;8.40;;;7.30;85.80;;;;;;5035771;28;20391;-74
2024/02/08 11:52:29;;;;;;;11.80;6.70;;;7.30;87.10;;;;;;5034056;28;20881;-74
2024/02/08 11:55:08;;;;;;;12.60;7.53;;;7.30;87.50;;;;;;5049119;28;20383;-75
2024/02/08 11:57:40;;;;;;;11.07;7.00;;;7.40;87.50;;;;;;5033683;28;20467;-75
2024/02/08 12:00:15;;;;;;;12.10;7.10;;;7.60;86.00;;;;;;5034413;28;20410;-74
2024/02/08 12:02:58;;;;;;;14.18;7.20;;;7.50;84.50;;;;;;5033270;28;20865;-75
2024/02/08 12:05:28;;;;;;;12.10;7.33;;;7.40;86.80;;;;;;5033188;28;20422;-74
2024/02/08 12:08:10;;;;;;;12.80;7.60;;;7.40;88.20;;;;;;5031716;28;20556;-74
2024/02/08 12:10:36;;;;;;;11.00;6.85;;;7.40;88.90;;;;;;5032858;28;20386;-74
2024/02/08 12:13:02;;;;;;;12.20;7.10;;;7.40;89.50;;;;;;5031443;28;20451;-74
2024/02/08 12:15:34;;;;;;;11.57;6.90;;;7.50;90.50;;;;;;5032488;28;20747;-74
2024/02/08 12:18:10;;;;;;;12.68;6.88;;;7.80;85.50;;;;;;5032714;28;20485;-74
2024/02/08 12:20:36;;;;;;;11.13;7.30;;;7.70;83.70;;;;;;5032929;28;20696;-74
2024/02/08 12:23:02;;;;;;;13.67;7.20;;;7.90;84.00;;;;;;5032400;28;20858;-74
2024/02/08 12:25:31;;;;;;;11.02;7.50;;;8.00;81.40;;;;;;5031346;28;20442;-74
2024/02/08 12:28:04;;;;;;;13.82;7.75;;;8.10;81.70;;;;;;5032574;28;20380;-75
2024/02/08 12:30:35;;;;;;;11.88;7.30;;;7.90;83.30;;;;;;5032227;28;20379;-73
2024/02/08 12:33:07;;;;;;;9.40;6.53;;;8.10;82.10;;;;;;5032581;28;20436;-74
2024/02/08 12:35:41;;;;;;;10.43;6.80;;;8.30;79.10;;;;;;5031971;28;20387;-74
2024/02/08 12:38:11;;;;;;;11.52;7.00;;;8.30;76.70;;;;;;5031960;28;20478;-74
2024/02/08 12:40:37;;;;;;;13.70;7.60;;;8.20;79.20;;;;;;5032769;28;20437;-74
2024/02/08 12:43:07;;;;;;;11.38;6.43;;;8.20;81.20;;;;;;5033840;28;20792;-74
2024/02/08 12:45:34;;;;;;;10.77;6.00;;;8.40;80.90;;;;;;5033212;28;20410;-74
2024/02/08 12:48:04;;;;;;;7.00;5.35;;;8.70;74.00;;;;;;5032038;28;20375;-74
2024/02/08 12:50:37;;;;;;;10.48;6.45;;;8.80;69.80;;;;;;5032316;28;20977;-74
2024/02/08 12:53:05;;;;;;;9.35;5.50;;;8.90;68.70;;;;;;5033553;28;20391;-73
2024/02/08 12:55:31;;;;;;;7.78;5.60;;;8.90;67.00;;;;;;5035382;28;20391;-74
2024/02/08 12:58:03;;;;;;;8.73;5.90;;;8.60;69.60;;;;;;5033618;28;20478;-76
2024/02/08 13:00:33;;;;;;;8.77;5.85;;;8.60;72.50;;;;;;5035031;28;20382;-75
2024/02/08 13:03:05;;;;;;;10.85;7.00;;;8.20;77.50;;;;;;5033931;28;20458;-75
2024/02/08 13:05:37;;;;;;;9.70;7.20;;;8.00;82.90;;;;;;5033942;28;20798;-74
2024/02/08 13:08:06;;;;;;;11.68;6.82;;;8.00;86.90;;;;;;5033081;28;20942;-74
2024/02/08 13:10:32;;;;;;;17.20;6.83;;;7.90;89.10;;;;;;5031336;28;20830;-74
2024/02/08 13:12:59;;;;;;;10.02;6.30;;;8.20;88.70;;;;;;5031066;28;20405;-74
2024/02/08 13:15:25;;;;;;;10.50;5.97;;;8.20;87.40;;;;;;5032031;28;20375;-74
2024/02/08 13:17:50;;;;;;;8.13;5.53;;;8.10;88.40;;;;;;5029695;28;20437;-74
2024/02/08 13:20:16;;;;;;;8.20;5.70;;;8.20;88.10;;;;;;5031870;28;20426;-74
2024/02/08 13:22:45;;;;;;;13.07;5.95;;;8.10;88.50;;;;;;5032030;28;20386;-74
2024/02/08 13:25:15;;;;;;;10.20;5.90;;;7.90;91.20;;;;;;5033639;28;20390;-76
2024/02/08 13:27:42;;;;;;;7.90;5.22;;;7.90;92.40;;;;;;5032857;28;20391;-75
2024/02/08 13:30:17;;;;;;;9.40;5.30;;;8.00;92.70;;;;;;5032584;28;20462;-74
2024/02/08 13:32:51;;;;;;;8.87;5.70;;;8.00;92.40;;;;;;5031553;28;20463;-74
2024/02/08 13:35:20;;;;;;;6.82;4.95;;;8.20;90.70;;;;;;5034517;28;20391;-75
2024/02/08 13:37:56;;;;;;;6.70;4.50;;;8.20;90.10;;;;;;5040218;28;20434;-75
2024/02/08 13:40:24;;;;;;;10.32;4.90;;;8.20;91.00;;;;;;5039119;28;20383;-75
2024/02/08 13:42:55;;;;;;;6.85;4.50;;;8.10;90.80;;;;;;5032747;28;20437;-74
2024/02/08 13:45:24;;;;;;;6.07;4.10;;;8.10;91.70;;;;;;5031341;28;20394;-74
2024/02/08 13:47:54;;;;;;;7.10;4.60;;;8.10;92.30;;;;;;5031631;28;20908;-75
2024/02/08 13:50:22;;;;;;;5.78;4.60;;;8.20;93.40;;;;;;5036074;28;20407;-74
2024/02/08 13:52:52;;;;;;;8.98;4.75;;;8.30;92.70;;;;;;5031502;28;20387;-74
2024/02/08 13:55:19;;;;;;;8.73;4.97;;;8.20;93.30;;;;;;5030835;28;20999;-74
2024/02/08 13:57:50;;;;;;;5.53;4.20;;;8.20;95.50;;;;;;5030943;28;20421;-75
2024/02/08 14:00:20;;;;;;;5.22;4.40;;;8.30;93.20;;;;;;5030872;28;20942;-74
2024/02/08 14:02:49;;;;;;;6.72;4.30;;;8.30;92.90;;;;;;5030569;28;20383;-74
2024/02/08 14:05:19;;;;;;;7.40;4.60;;;8.60;88.30;;;;;;5045670;28;20418;-74
2024/02/08 14:07:47;;;;;;;8.65;5.22;;;8.70;84.20;;;;;;5054341;28;20395;-74
2024/02/08 14:10:27;;;;;;;8.23;6.10;;;8.50;89.50;;;;;;5052440;28;20454;-74
2024/02/08 14:12:59;;;;;;;11.00;5.20;;;8.30;90.20;;;;;;5053224;28;20393;-73
2024/02/08 14:15:29;;;;;;;8.77;5.40;;;8.40;91.90;;;;;;5054131;28;20379;-73
2024/02/08 14:18:11;;;;;;;10.10;6.13;;;8.40;93.30;;;;;;5053333;28;20466;-74
2024/02/08 14:20:52;;;;;;;8.10;5.93;;;8.40;94.80;;;;;;5054175;28;20383;-74
2024/02/08 14:23:29;;;;;;;9.80;5.10;;;8.40;96.00;;;;;;5052073;28;20421;-73
2024/02/08 14:26:09;;;;;;;10.25;5.70;;;8.40;94.10;;;;;;5043341;28;20518;-75
2024/02/08 14:28:42;;;;;;;9.77;5.10;;;8.40;95.40;;;;;;5039662;28;20378;-74
2024/02/08 14:31:10;;;;;;;9.88;5.50;;;8.50;95.50;;;;;;5035968;28;20388;-73
2024/02/08 14:33:37;;;;;;;11.20;5.60;;;8.60;95.10;;;;;;5031282;28;20403;-74
2024/02/08 14:36:08;;;;;;;9.20;5.90;;;8.70;95.40;;;;;;5032728;28;20722;-74
2024/02/08 14:38:40;;;;;;;7.35;4.75;;;8.80;95.60;;;;;;5034864;28;20473;-75
2024/02/08 14:41:07;;;;;;;8.38;4.97;;;8.80;94.10;;;;;;5033782;28;20395;-75
2024/02/08 14:43:33;;;;;;;7.50;5.05;;;8.80;93.90;;;;;;5031678;28;20400;-74
2024/02/08 14:46:00;;;;;;;6.68;4.93;;;8.80;93.90;;;;;;5032029;28;20414;-74
2024/02/08 14:48:37;;;;;;;7.82;4.32;;;8.80;94.90;;;;;;5032790;28;20433;-73
2024/02/08 14:53:49;;;;;;;5.97;4.28;;;8.80;93.60;;;;;;5032226;28;20394;-75
2024/02/08 14:56:18;;;;;;;6.28;4.60;;;8.90;95.10;;;;;;5050320;28;20478;-76
2024/02/08 14:58:56;;;;;;;6.82;5.30;;;8.80;94.20;;;;;;5034877;28;20482;-74
2024/02/08 15:01:38;;;;;;;9.93;6.45;;;8.70;96.90;;;;;;5034565;28;20391;-74